sensor_id;sensor_type;location;lat;lon;timestamp;pressure;altitude;pressure_sealevel;temperature;humidity
43364;BME280;40636;52.424;-1.948;2023-06-22T00:00:00;100185.06;;;15.15;100.00
43364;BME280;40636;52.424;-1.948;2023-06-22T00:02:27;100183.69;;;15.22;100.00
43364;BME280;40636;52.424;-1.948;2023-06-22T00:04:54;100191.16;;;15.27;100.00
43364;BME280;40636;52.424;-1.948;2023-06-22T00:07:21;100190.06;;;15.28;100.00
43364;BME280;40636;52.424;-1.948;2023-06-22T00:09:48;100194.19;;;15.26;100.00
43364;BME280;40636;52.424;-1.948;2023-06-22T00:12:14;100188.13;;;15.23;100.00
43364;BME280;40636;52.424;-1.948;2023-06-22T00:14:41;100188.41;;;15.22;100.00
43364;BME280;40636;52.424;-1.948;2023-06-22T00:17:08;100188.41;;;15.22;100.00
43364;BME280;40636;52.424;-1.948;2023-06-22T00:19:35;100187.28;;;15.23;100.00
43364;BME280;40636;52.424;-1.948;2023-06-22T00:22:02;100196.94;;;15.20;100.00
43364;BME280;40636;52.424;-1.948;2023-06-22T00:24:30;100195.88;;;15.21;100.00
43364;BME280;40636;52.424;-1.948;2023-06-22T00:26:57;100188.94;;;15.19;100.00
43364;BME280;40636;52.424;-1.948;2023-06-22T00:29:23;100186.19;;;15.19;100.00
43364;BME280;40636;52.424;-1.948;2023-06-22T00:31:51;100188.66;;;15.20;100.00
43364;BME280;40636;52.424;-1.948;2023-06-22T00:34:18;100177.06;;;15.18;100.00
43364;BME280;40636;52.424;-1.948;2023-06-22T00:36:45;100183.69;;;15.17;100.00
43364;BME280;40636;52.424;-1.948;2023-06-22T00:39:13;100190.31;;;15.16;100.00
43364;BME280;40636;52.424;-1.948;2023-06-22T00:41:40;100185.59;;;15.17;100.00
43364;BME280;40636;52.424;-1.948;2023-06-22T00:44:06;100185.34;;;15.18;100.00
43364;BME280;40636;52.424;-1.948;2023-06-22T00:46:35;100182.31;;;15.20;100.00
43364;BME280;40636;52.424;-1.948;2023-06-22T00:49:01;100187.28;;;15.18;100.00
43364;BME280;40636;52.424;-1.948;2023-06-22T00:51:30;100183.97;;;15.16;100.00
43364;BME280;40636;52.424;-1.948;2023-06-22T00:53:57;100188.66;;;15.15;100.00
43364;BME280;40636;52.424;-1.948;2023-06-22T00:56:24;100192.81;;;15.13;100.00
43364;BME280;40636;52.424;-1.948;2023-06-22T00:58:53;100193.91;;;15.12;100.00
43364;BME280;40636;52.424;-1.948;2023-06-22T01:01:20;100189.78;;;15.09;100.00
43364;BME280;40636;52.424;-1.948;2023-06-22T01:03:50;100194.72;;;15.12;100.00
43364;BME280;40636;52.424;-1.948;2023-06-22T01:06:25;100195.28;;;15.09;100.00
43364;BME280;40636;52.424;-1.948;2023-06-22T01:09:32;100199.16;;;15.08;100.00
43364;BME280;40636;52.424;-1.948;2023-06-22T01:12:01;100198.06;;;15.04;100.00
43364;BME280;40636;52.424;-1.948;2023-06-22T01:14:36;100201.38;;;15.06;100.00
43364;BME280;40636;52.424;-1.948;2023-06-22T01:17:05;100198.59;;;15.11;100.00
43364;BME280;40636;52.424;-1.948;2023-06-22T01:19:39;100210.22;;;15.13;100.00
43364;BME280;40636;52.424;-1.948;2023-06-22T01:22:11;100198.59;;;15.11;100.00
43364;BME280;40636;52.424;-1.948;2023-06-22T01:24:57;100201.38;;;15.06;100.00
43364;BME280;40636;52.424;-1.948;2023-06-22T01:30:13;100210.75;;;15.00;100.00
43364;BME280;40636;52.424;-1.948;2023-06-22T01:32:42;100209.94;;;15.00;100.00
43364;BME280;40636;52.424;-1.948;2023-06-22T01:35:10;100209.09;;;14.99;100.00
43364;BME280;40636;52.424;-1.948;2023-06-22T01:37:38;100220.41;;;14.97;100.00
43364;BME280;40636;52.424;-1.948;2023-06-22T01:40:06;100219.56;;;14.92;100.00
43364;BME280;40636;52.424;-1.948;2023-06-22T01:42:36;100224.00;;;14.93;100.00
43364;BME280;40636;52.424;-1.948;2023-06-22T01:45:04;100218.47;;;14.93;100.00
43364;BME280;40636;52.424;-1.948;2023-06-22T01:47:31;100226.22;;;14.91;100.00
43364;BME280;40636;52.424;-1.948;2023-06-22T01:49:59;100223.44;;;14.91;100.00
43364;BME280;40636;52.424;-1.948;2023-06-22T01:52:26;100228.97;;;14.91;100.00
43364;BME280;40636;52.424;-1.948;2023-06-22T01:54:52;100227.88;;;14.92;100.00
43364;BME280;40636;52.424;-1.948;2023-06-22T01:57:19;100224.56;;;14.95;100.00
43364;BME280;40636;52.424;-1.948;2023-06-22T01:59:53;100226.78;;;14.98;100.00
43364;BME280;40636;52.424;-1.948;2023-06-22T02:02:29;100228.44;;;14.99;100.00
43364;BME280;40636;52.424;-1.948;2023-06-22T02:05:00;100232.88;;;15.00;100.00
43364;BME280;40636;52.424;-1.948;2023-06-22T02:07:32;100224.56;;;15.00;100.00
43364;BME280;40636;52.424;-1.948;2023-06-22T02:10:02;100225.94;;;14.97;100.00
43364;BME280;40636;52.424;-1.948;2023-06-22T02:12:30;100233.13;;;14.98;100.00
43364;BME280;40636;52.424;-1.948;2023-06-22T02:14:58;100227.63;;;15.04;100.00
43364;BME280;40636;52.424;-1.948;2023-06-22T02:17:27;100237.00;;;15.08;100.00
43364;BME280;40636;52.424;-1.948;2023-06-22T02:19:54;100240.63;;;15.13;100.00
43364;BME280;40636;52.424;-1.948;2023-06-22T02:22:21;100227.34;;;15.15;100.00
43364;BME280;40636;52.424;-1.948;2023-06-22T02:24:48;100235.13;;;15.23;100.00
43364;BME280;40636;52.424;-1.948;2023-06-22T02:27:15;100235.94;;;15.24;100.00
43364;BME280;40636;52.424;-1.948;2023-06-22T02:29:41;100234.00;;;15.14;100.00
43364;BME280;40636;52.424;-1.948;2023-06-22T02:32:08;100236.75;;;15.09;100.00
43364;BME280;40636;52.424;-1.948;2023-06-22T02:34:35;100244.22;;;15.09;100.00
43364;BME280;40636;52.424;-1.948;2023-06-22T02:37:03;100236.19;;;15.07;100.00
43364;BME280;40636;52.424;-1.948;2023-06-22T02:39:30;100241.72;;;15.07;100.00
43364;BME280;40636;52.424;-1.948;2023-06-22T02:41:57;100243.13;;;15.10;100.00
43364;BME280;40636;52.424;-1.948;2023-06-22T02:44:24;100226.25;;;15.06;100.00
43364;BME280;40636;52.424;-1.948;2023-06-22T02:46:50;100227.63;;;15.09;100.00
43364;BME280;40636;52.424;-1.948;2023-06-22T02:49:17;100228.47;;;15.09;100.00
43364;BME280;40636;52.424;-1.948;2023-06-22T02:51:48;100224.31;;;15.12;100.00
43364;BME280;40636;52.424;-1.948;2023-06-22T02:54:15;100220.72;;;15.11;100.00
43364;BME280;40636;52.424;-1.948;2023-06-22T02:56:43;100225.69;;;15.09;100.00
43364;BME280;40636;52.424;-1.948;2023-06-22T02:59:12;100226.25;;;15.06;100.00
43364;BME280;40636;52.424;-1.948;2023-06-22T03:01:39;100229.53;;;15.03;100.00
43364;BME280;40636;52.424;-1.948;2023-06-22T03:04:08;100230.94;;;15.01;100.00
43364;BME280;40636;52.424;-1.948;2023-06-22T03:06:35;100235.34;;;14.96;100.00
43364;BME280;40636;52.424;-1.948;2023-06-22T03:09:04;100236.69;;;14.94;100.00
43364;BME280;40636;52.424;-1.948;2023-06-22T03:11:32;100230.09;;;14.95;100.00
43364;BME280;40636;52.424;-1.948;2023-06-22T03:14:00;100229.53;;;14.98;100.00
43364;BME280;40636;52.424;-1.948;2023-06-22T03:16:28;100236.69;;;14.94;100.00
43364;BME280;40636;52.424;-1.948;2023-06-22T03:18:55;100225.94;;;14.92;100.00
43364;BME280;40636;52.424;-1.948;2023-06-22T03:21:23;100226.75;;;14.93;100.00
43364;BME280;40636;52.424;-1.948;2023-06-22T03:23:50;100235.06;;;14.93;100.00
43364;BME280;40636;52.424;-1.948;2023-06-22T03:26:18;100227.88;;;14.92;100.00
43364;BME280;40636;52.424;-1.948;2023-06-22T03:28:45;100230.09;;;14.90;100.00
43364;BME280;40636;52.424;-1.948;2023-06-22T03:31:12;100237.28;;;14.91;100.00
43364;BME280;40636;52.424;-1.948;2023-06-22T03:33:38;100235.63;;;14.90;100.00
43364;BME280;40636;52.424;-1.948;2023-06-22T03:36:05;100238.91;;;14.87;100.00
43364;BME280;40636;52.424;-1.948;2023-06-22T03:38:32;100238.09;;;14.86;100.00
43364;BME280;40636;52.424;-1.948;2023-06-22T03:40:59;100247.72;;;14.84;100.00
43364;BME280;40636;52.424;-1.948;2023-06-22T03:43:26;100246.09;;;14.83;100.00
43364;BME280;40636;52.424;-1.948;2023-06-22T03:45:52;100236.69;;;14.84;100.00
43364;BME280;40636;52.424;-1.948;2023-06-22T03:48:20;100235.31;;;14.81;100.00
43364;BME280;40636;52.424;-1.948;2023-06-22T03:50:46;100236.13;;;14.82;100.00
43364;BME280;40636;52.424;-1.948;2023-06-22T03:53:13;100242.19;;;14.79;100.00
43364;BME280;40636;52.424;-1.948;2023-06-22T03:55:50;100239.97;;;14.76;100.00
43364;BME280;40636;52.424;-1.948;2023-06-22T03:58:18;100244.13;;;14.78;100.00
43364;BME280;40636;52.424;-1.948;2023-06-22T04:00:46;100236.13;;;14.77;100.00
43364;BME280;40636;52.424;-1.948;2023-06-22T04:03:14;100246.06;;;14.73;100.00
43364;BME280;40636;52.424;-1.948;2023-06-22T04:05:41;100239.41;;;14.68;100.00
43364;BME280;40636;52.424;-1.948;2023-06-22T04:08:08;100236.94;;;14.72;100.00
43364;BME280;40636;52.424;-1.948;2023-06-22T04:10:35;100235.53;;;14.69;100.00
43364;BME280;40636;52.424;-1.948;2023-06-22T04:13:02;100241.59;;;14.66;100.00
43364;BME280;40636;52.424;-1.948;2023-06-22T04:15:29;100234.94;;;14.62;100.00
43364;BME280;40636;52.424;-1.948;2023-06-22T04:17:56;100230.28;;;14.63;100.00
43364;BME280;40636;52.424;-1.948;2023-06-22T04:20:23;100228.59;;;14.62;100.00
43364;BME280;40636;52.424;-1.948;2023-06-22T04:22:55;100233.59;;;14.70;100.00
43364;BME280;40636;52.424;-1.948;2023-06-22T04:25:22;100232.78;;;14.75;100.00
43364;BME280;40636;52.424;-1.948;2023-06-22T04:27:49;100232.25;;;14.73;100.00
43364;BME280;40636;52.424;-1.948;2023-06-22T04:30:16;100237.78;;;14.78;100.00
43364;BME280;40636;52.424;-1.948;2023-06-22T04:32:44;100231.16;;;14.84;100.00
43364;BME280;40636;52.424;-1.948;2023-06-22T04:35:11;100227.56;;;14.88;100.00
43364;BME280;40636;52.424;-1.948;2023-06-22T04:37:38;100227.34;;;14.95;100.00
43364;BME280;40636;52.424;-1.948;2023-06-22T04:40:06;100224.56;;;15.00;100.00
43364;BME280;40636;52.424;-1.948;2023-06-22T04:42:34;100229.28;;;15.00;100.00
43364;BME280;40636;52.424;-1.948;2023-06-22T04:45:03;100227.63;;;15.04;100.00
43364;BME280;40636;52.424;-1.948;2023-06-22T04:47:30;100226.00;;;15.13;100.00
43364;BME280;40636;52.424;-1.948;2023-06-22T04:49:57;100231.53;;;15.18;100.00
43364;BME280;40636;52.424;-1.948;2023-06-22T04:52:24;100238.72;;;15.29;100.00
43364;BME280;40636;52.424;-1.948;2023-06-22T04:54:51;100237.63;;;15.35;100.00
43364;BME280;40636;52.424;-1.948;2023-06-22T04:57:22;100230.69;;;15.48;100.00
43364;BME280;40636;52.424;-1.948;2023-06-22T04:59:58;100227.38;;;15.56;100.00
43364;BME280;40636;52.424;-1.948;2023-06-22T05:02:33;100234.06;;;15.65;100.00
43364;BME280;40636;52.424;-1.948;2023-06-22T05:05:00;100230.75;;;15.68;100.00
43364;BME280;40636;52.424;-1.948;2023-06-22T05:07:27;100226.84;;;15.75;100.00
43364;BME280;40636;52.424;-1.948;2023-06-22T05:09:54;100221.31;;;15.80;100.00
43364;BME280;40636;52.424;-1.948;2023-06-22T05:12:20;100225.75;;;15.86;100.00
43364;BME280;40636;52.424;-1.948;2023-06-22T05:14:47;100234.31;;;15.89;100.00
43364;BME280;40636;52.424;-1.948;2023-06-22T05:17:14;100227.38;;;16.02;100.00
43364;BME280;40636;52.424;-1.948;2023-06-22T05:19:41;100228.75;;;16.10;100.00
43364;BME280;40636;52.424;-1.948;2023-06-22T05:22:11;100233.72;;;16.18;100.00
43364;BME280;40636;52.424;-1.948;2023-06-22T05:24:38;100225.09;;;16.24;100.00
43364;BME280;40636;52.424;-1.948;2023-06-22T05:27:05;100232.31;;;16.31;100.00
43364;BME280;40636;52.424;-1.948;2023-06-22T05:29:32;100232.31;;;16.31;100.00
43364;BME280;40636;52.424;-1.948;2023-06-22T05:31:59;100238.91;;;16.35;100.00
43364;BME280;40636;52.424;-1.948;2023-06-22T05:34:26;100237.22;;;16.49;100.00
43364;BME280;40636;52.424;-1.948;2023-06-22T05:36:53;100241.06;;;16.53;100.00
43364;BME280;40636;52.424;-1.948;2023-06-22T05:39:19;100243.81;;;16.63;100.00
43364;BME280;40636;52.424;-1.948;2023-06-22T05:41:46;100242.16;;;16.62;100.00
43364;BME280;40636;52.424;-1.948;2023-06-22T05:44:13;100253.47;;;16.71;100.00
43364;BME280;40636;52.424;-1.948;2023-06-22T05:46:44;100248.16;;;16.85;100.00
43364;BME280;40636;52.424;-1.948;2023-06-22T05:49:12;100247.34;;;16.84;100.00
43364;BME280;40636;52.424;-1.948;2023-06-22T05:51:40;100245.59;;;17.04;100.00
43364;BME280;40636;52.424;-1.948;2023-06-22T05:54:07;100250.25;;;17.13;100.00
43364;BME280;40636;52.424;-1.948;2023-06-22T05:56:35;100251.78;;;17.30;100.00
43364;BME280;40636;52.424;-1.948;2023-06-22T05:59:03;100254.50;;;17.40;100.00
43364;BME280;40636;52.424;-1.948;2023-06-22T06:01:30;100252.72;;;17.54;100.00
43364;BME280;40636;52.424;-1.948;2023-06-22T06:04:03;100245.72;;;17.62;100.00
43364;BME280;40636;52.424;-1.948;2023-06-22T06:06:30;100246.47;;;17.78;100.00
43364;BME280;40636;52.424;-1.948;2023-06-22T06:08:58;100247.13;;;17.93;100.00
43364;BME280;40636;52.424;-1.948;2023-06-22T06:11:26;100248.94;;;18.08;100.00
43364;BME280;40636;52.424;-1.948;2023-06-22T06:13:53;100254.34;;;18.23;100.00
43364;BME280;40636;52.424;-1.948;2023-06-22T06:16:20;100257.00;;;18.34;100.00
43364;BME280;40636;52.424;-1.948;2023-06-22T06:18:46;100256.28;;;18.23;100.00
43364;BME280;40636;52.424;-1.948;2023-06-22T06:21:15;100251.69;;;18.37;100.00
43364;BME280;40636;52.424;-1.948;2023-06-22T06:23:42;100242.34;;;18.28;100.00
43364;BME280;40636;52.424;-1.948;2023-06-22T06:26:08;100244.00;;;18.29;100.00
43364;BME280;40636;52.424;-1.948;2023-06-22T06:28:35;100248.09;;;18.37;100.00
43364;BME280;40636;52.424;-1.948;2023-06-22T06:31:02;100259.97;;;18.42;100.00
43364;BME280;40636;52.424;-1.948;2023-06-22T06:33:29;100258.91;;;18.38;100.00
43364;BME280;40636;52.424;-1.948;2023-06-22T06:35:58;100257.25;;;18.37;100.00
43364;BME280;40636;52.424;-1.948;2023-06-22T06:38:24;100264.06;;;18.50;100.00
43364;BME280;40636;52.424;-1.948;2023-06-22T06:40:51;100259.66;;;18.44;100.00
43364;BME280;40636;52.424;-1.948;2023-06-22T06:43:18;100261.22;;;18.55;100.00
43364;BME280;40636;52.424;-1.948;2023-06-22T06:45:45;100253.88;;;18.64;100.00
43364;BME280;40636;52.424;-1.948;2023-06-22T06:48:12;100252.75;;;18.65;100.00
43364;BME280;40636;52.424;-1.948;2023-06-22T06:50:38;100254.94;;;18.68;100.00
43364;BME280;40636;52.424;-1.948;2023-06-22T06:53:05;100264.38;;;18.72;100.00
43364;BME280;40636;52.424;-1.948;2023-06-22T06:55:32;100263.56;;;18.91;100.00
43364;BME280;40636;52.424;-1.948;2023-06-22T06:57:59;100266.22;;;19.01;100.00
43364;BME280;40636;52.424;-1.948;2023-06-22T07:00:26;100265.47;;;19.14;100.00
43364;BME280;40636;52.424;-1.948;2023-06-22T07:02:54;100270.53;;;19.31;100.00
43364;BME280;40636;52.424;-1.948;2023-06-22T07:05:21;100271.56;;;19.54;100.00
43364;BME280;40636;52.424;-1.948;2023-06-22T07:07:48;100260.06;;;19.42;100.00
43364;BME280;40636;52.424;-1.948;2023-06-22T07:10:15;100265.25;;;19.67;100.00
43364;BME280;40636;52.424;-1.948;2023-06-22T07:12:42;100266.22;;;19.39;100.00
43364;BME280;40636;52.424;-1.948;2023-06-22T07:15:11;100270.28;;;19.27;100.00
43364;BME280;40636;52.424;-1.948;2023-06-22T07:17:39;100271.63;;;19.11;100.00
43364;BME280;40636;52.424;-1.948;2023-06-22T07:20:09;100276.00;;;19.17;100.00
43364;BME280;40636;52.424;-1.948;2023-06-22T07:22:43;100279.69;;;19.32;100.00
43364;BME280;40636;52.424;-1.948;2023-06-22T07:25:11;100270.22;;;19.14;100.00
43364;BME280;40636;52.424;-1.948;2023-06-22T07:27:55;100272.41;;;19.36;100.00
43364;BME280;40636;52.424;-1.948;2023-06-22T07:30:22;100269.16;;;19.29;100.00
43364;BME280;40636;52.424;-1.948;2023-06-22T07:32:49;100267.28;;;19.43;100.00
43364;BME280;40636;52.424;-1.948;2023-06-22T07:35:17;100270.66;;;19.59;100.00
43364;BME280;40636;52.424;-1.948;2023-06-22T07:37:43;100273.63;;;19.67;100.00
43364;BME280;40636;52.424;-1.948;2023-06-22T07:40:11;100274.00;;;19.93;100.00
43364;BME280;40636;52.424;-1.948;2023-06-22T07:42:38;100261.78;;;20.08;100.00
43364;BME280;40636;52.424;-1.948;2023-06-22T07:45:06;100265.53;;;20.31;100.00
43364;BME280;40636;52.424;-1.948;2023-06-22T07:47:34;100261.59;;;20.46;100.00
43364;BME280;40636;52.424;-1.948;2023-06-22T07:50:03;100253.16;;;20.65;100.00
43364;BME280;40636;52.424;-1.948;2023-06-22T07:52:30;100249.34;;;20.74;100.00
43364;BME280;40636;52.424;-1.948;2023-06-22T07:54:57;100249.44;;;20.83;100.00
43364;BME280;40636;52.424;-1.948;2023-06-22T07:57:24;100241.69;;;20.80;100.00
43364;BME280;40636;52.424;-1.948;2023-06-22T08:00:01;100250.91;;;20.67;100.00
43364;BME280;40636;52.424;-1.948;2023-06-22T08:02:30;100254.19;;;20.41;100.00
43364;BME280;40636;52.424;-1.948;2023-06-22T08:04:57;100260.13;;;20.21;100.00
43364;BME280;40636;52.424;-1.948;2023-06-22T08:07:44;100254.31;;;20.50;100.00
43364;BME280;40636;52.424;-1.948;2023-06-22T08:10:14;100240.97;;;20.74;100.00
43364;BME280;40636;52.424;-1.948;2023-06-22T08:12:41;100241.38;;;20.82;100.00
43364;BME280;40636;52.424;-1.948;2023-06-22T08:15:08;100239.81;;;21.03;100.00
43364;BME280;40636;52.424;-1.948;2023-06-22T08:17:37;100242.69;;;20.98;100.00
43364;BME280;40636;52.424;-1.948;2023-06-22T08:20:05;100245.41;;;20.89;100.00
43364;BME280;40636;52.424;-1.948;2023-06-22T08:22:41;100230.63;;;20.89;100.00
43364;BME280;40636;52.424;-1.948;2023-06-22T08:25:14;100239.59;;;20.99;100.00
43364;BME280;40636;52.424;-1.948;2023-06-22T08:27:45;100243.59;;;21.07;100.00
43364;BME280;40636;52.424;-1.948;2023-06-22T08:30:12;100243.84;;;20.97;100.00
43364;BME280;40636;52.424;-1.948;2023-06-22T08:32:39;100249.41;;;20.97;100.00
43364;BME280;40636;52.424;-1.948;2023-06-22T08:35:07;100243.34;;;20.95;100.00
43364;BME280;40636;52.424;-1.948;2023-06-22T08:37:35;100249.91;;;21.13;100.00
43364;BME280;40636;52.424;-1.948;2023-06-22T08:40:05;100243.50;;;21.12;100.00
43364;BME280;40636;52.424;-1.948;2023-06-22T08:42:32;100246.66;;;21.33;100.00
43364;BME280;40636;52.424;-1.948;2023-06-22T08:44:59;100252.25;;;21.33;100.00
43364;BME280;40636;52.424;-1.948;2023-06-22T08:47:29;100246.88;;;21.23;100.00
43364;BME280;40636;52.424;-1.948;2023-06-22T08:50:07;100250.75;;;21.13;100.00
43364;BME280;40636;52.424;-1.948;2023-06-22T08:52:35;100240.94;;;21.02;100.00
43364;BME280;40636;52.424;-1.948;2023-06-22T08:55:03;100249.84;;;21.04;100.00
43364;BME280;40636;52.424;-1.948;2023-06-22T08:57:30;100255.56;;;20.85;100.00
43364;BME280;40636;52.424;-1.948;2023-06-22T08:59:59;100241.97;;;20.92;100.00
43364;BME280;40636;52.424;-1.948;2023-06-22T09:02:26;100249.84;;;20.90;100.00
43364;BME280;40636;52.424;-1.948;2023-06-22T09:04:57;100261.72;;;20.96;100.00
43364;BME280;40636;52.424;-1.948;2023-06-22T09:07:25;100255.72;;;20.89;100.00
43364;BME280;40636;52.424;-1.948;2023-06-22T09:09:52;100266.59;;;20.90;100.00
43364;BME280;40636;52.424;-1.948;2023-06-22T09:12:20;100260.13;;;21.17;100.00
43364;BME280;40636;52.424;-1.948;2023-06-22T09:14:51;100267.56;;;21.36;100.00
43364;BME280;40636;52.424;-1.948;2023-06-22T09:17:18;100265.88;;;21.48;100.00
43364;BME280;40636;52.424;-1.948;2023-06-22T09:19:45;100266.63;;;21.63;100.00
43364;BME280;40636;52.424;-1.948;2023-06-22T09:22:14;100258.81;;;21.73;100.00
43364;BME280;40636;52.424;-1.948;2023-06-22T09:24:41;100252.75;;;21.71;100.00
43364;BME280;40636;52.424;-1.948;2023-06-22T09:27:08;100258.75;;;21.87;100.00
43364;BME280;40636;52.424;-1.948;2023-06-22T09:29:35;100258.69;;;22.01;100.00
43364;BME280;40636;52.424;-1.948;2023-06-22T09:32:02;100266.19;;;21.92;100.00
43364;BME280;40636;52.424;-1.948;2023-06-22T09:34:29;100267.75;;;21.84;100.00
43364;BME280;40636;52.424;-1.948;2023-06-22T09:36:57;100272.34;;;21.80;100.00
43364;BME280;40636;52.424;-1.948;2023-06-22T09:39:27;100271.91;;;21.87;100.00
43364;BME280;40636;52.424;-1.948;2023-06-22T09:41:54;100268.47;;;21.67;100.00
43364;BME280;40636;52.424;-1.948;2023-06-22T09:44:20;100263.91;;;21.71;100.00
43364;BME280;40636;52.424;-1.948;2023-06-22T09:46:47;100270.13;;;21.68;100.00
43364;BME280;40636;52.424;-1.948;2023-06-22T09:49:14;100273.28;;;21.75;100.00
43364;BME280;40636;52.424;-1.948;2023-06-22T09:51:40;100274.50;;;21.83;100.00
43364;BME280;40636;52.424;-1.948;2023-06-22T09:54:07;100279.72;;;21.76;100.00
43364;BME280;40636;52.424;-1.948;2023-06-22T09:56:34;100289.03;;;21.49;100.00
43364;BME280;40636;52.424;-1.948;2023-06-22T09:59:01;100275.50;;;21.65;100.00
43364;BME280;40636;52.424;-1.948;2023-06-22T10:01:43;100286.06;;;21.68;100.00
43364;BME280;40636;52.424;-1.948;2023-06-22T10:04:10;100281.31;;;21.68;100.00
43364;BME280;40636;52.424;-1.948;2023-06-22T10:06:37;100276.16;;;21.84;100.00
43364;BME280;40636;52.424;-1.948;2023-06-22T10:09:07;100274.63;;;21.78;100.00
43364;BME280;40636;52.424;-1.948;2023-06-22T10:11:34;100273.94;;;21.95;100.00
43364;BME280;40636;52.424;-1.948;2023-06-22T10:14:02;100280.03;;;21.97;100.00
43364;BME280;40636;52.424;-1.948;2023-06-22T10:16:31;100280.41;;;22.04;100.00
43364;BME280;40636;52.424;-1.948;2023-06-22T10:18:58;100283.97;;;22.18;100.00
43364;BME280;40636;52.424;-1.948;2023-06-22T10:21:25;100280.44;;;22.35;100.00
43364;BME280;40636;52.424;-1.948;2023-06-22T10:23:54;100275.63;;;22.27;100.00
43364;BME280;40636;52.424;-1.948;2023-06-22T10:26:22;100273.34;;;22.29;100.00
43364;BME280;40636;52.424;-1.948;2023-06-22T10:28:49;100276.66;;;22.31;100.00
43364;BME280;40636;52.424;-1.948;2023-06-22T10:31:26;100275.63;;;22.27;100.00
43364;BME280;40636;52.424;-1.948;2023-06-22T10:33:54;100280.56;;;22.30;100.00
43364;BME280;40636;52.424;-1.948;2023-06-22T10:36:22;100286.19;;;22.08;100.00
43364;BME280;40636;52.424;-1.948;2023-06-22T10:38:49;100285.59;;;21.97;100.00
43364;BME280;40636;52.424;-1.948;2023-06-22T10:41:16;100286.88;;;21.91;100.00
43364;BME280;40636;52.424;-1.948;2023-06-22T10:43:43;100295.41;;;21.86;100.00
43364;BME280;40636;52.424;-1.948;2023-06-22T10:46:10;100280.41;;;21.82;100.00
43364;BME280;40636;52.424;-1.948;2023-06-22T10:48:37;100292.63;;;21.86;100.00
43364;BME280;40636;52.424;-1.948;2023-06-22T10:51:04;100296.78;;;21.74;100.00
43364;BME280;40636;52.424;-1.948;2023-06-22T10:53:31;100287.91;;;21.72;100.00
43364;BME280;40636;52.424;-1.948;2023-06-22T10:55:58;100297.25;;;21.68;100.00
43364;BME280;40636;52.424;-1.948;2023-06-22T10:58:26;100293.09;;;21.65;100.00
43364;BME280;40636;52.424;-1.948;2023-06-22T11:00:53;100296.34;;;21.59;100.00
43364;BME280;40636;52.424;-1.948;2023-06-22T11:03:19;100298.72;;;21.51;100.00
43364;BME280;40636;52.424;-1.948;2023-06-22T11:05:47;100296.88;;;21.47;100.00
43364;BME280;40636;52.424;-1.948;2023-06-22T11:08:14;100298.53;;;21.48;100.00
43364;BME280;40636;52.424;-1.948;2023-06-22T11:10:41;100292.94;;;21.48;100.00
43364;BME280;40636;52.424;-1.948;2023-06-22T11:13:09;100295.16;;;21.37;100.00
43364;BME280;40636;52.424;-1.948;2023-06-22T11:15:38;100302.19;;;21.35;100.00
43364;BME280;40636;52.424;-1.948;2023-06-22T11:18:05;100299.38;;;21.35;100.00
43364;BME280;40636;52.424;-1.948;2023-06-22T11:20:34;100298.38;;;21.31;100.00
43364;BME280;40636;52.424;-1.948;2023-06-22T11:23:05;100303.09;;;21.30;100.00
43364;BME280;40636;52.424;-1.948;2023-06-22T11:25:35;100302.75;;;20.95;100.00
43364;BME280;40636;52.424;-1.948;2023-06-22T11:28:02;100305.66;;;20.76;100.00
43364;BME280;40636;52.424;-1.948;2023-06-22T11:30:30;100304.72;;;20.67;100.00
43364;BME280;40636;52.424;-1.948;2023-06-22T11:32:58;100312.25;;;20.53;100.00
43364;BME280;40636;52.424;-1.948;2023-06-22T11:35:26;100312.66;;;20.60;100.00
43364;BME280;40636;52.424;-1.948;2023-06-22T11:37:52;100323.41;;;20.53;100.00
43364;BME280;40636;52.424;-1.948;2023-06-22T11:40:19;100321.69;;;20.38;100.00
43364;BME280;40636;52.424;-1.948;2023-06-22T11:42:46;100324.53;;;20.19;100.00
43364;BME280;40636;52.424;-1.948;2023-06-22T11:45:13;100309.22;;;20.36;100.00
43364;BME280;40636;52.424;-1.948;2023-06-22T11:47:40;100309.72;;;20.38;100.00
43364;BME280;40636;52.424;-1.948;2023-06-22T11:50:07;100317.53;;;20.68;100.00
43364;BME280;40636;52.424;-1.948;2023-06-22T11:52:34;100321.13;;;20.96;100.00
43364;BME280;40636;52.424;-1.948;2023-06-22T11:55:05;100322.19;;;21.00;100.00
43364;BME280;40636;52.424;-1.948;2023-06-22T11:57:36;100318.03;;;20.98;100.00
43364;BME280;40636;52.424;-1.948;2023-06-22T12:00:04;100315.78;;;21.00;100.00
43364;BME280;40636;52.424;-1.948;2023-06-22T12:02:55;100311.41;;;21.21;100.00
43364;BME280;40636;52.424;-1.948;2023-06-22T12:05:26;100313.03;;;21.50;100.00
43364;BME280;40636;52.424;-1.948;2023-06-22T12:07:54;100313.94;;;21.59;100.00
43364;BME280;40636;52.424;-1.948;2023-06-22T12:10:22;100310.34;;;21.45;100.00
43364;BME280;40636;52.424;-1.948;2023-06-22T12:12:49;100307.50;;;21.59;100.00
43364;BME280;40636;52.424;-1.948;2023-06-22T12:15:16;100304.16;;;21.70;100.00
43364;BME280;40636;52.424;-1.948;2023-06-22T12:17:43;100307.13;;;21.74;100.00
43364;BME280;40636;52.424;-1.948;2023-06-22T12:20:10;100307.59;;;21.90;100.00
43364;BME280;40636;52.424;-1.948;2023-06-22T12:22:37;100298.38;;;22.12;100.00
43364;BME280;40636;52.424;-1.948;2023-06-22T12:25:04;100298.19;;;22.08;100.00
43364;BME280;40636;52.424;-1.948;2023-06-22T12:27:31;100300.47;;;22.06;100.00
43364;BME280;40636;52.424;-1.948;2023-06-22T12:29:58;100295.06;;;22.32;100.00
43364;BME280;40636;52.424;-1.948;2023-06-22T12:32:25;100304.81;;;22.43;100.00
43364;BME280;40636;52.424;-1.948;2023-06-22T12:34:57;100305.78;;;22.39;100.00
43364;BME280;40636;52.424;-1.948;2023-06-22T12:37:31;100303.44;;;22.63;100.00